createdAt,value
2016-01-31T00:00:14.229Z,984.34
2016-01-31T00:01:14.645Z,984.33
2016-01-31T00:02:13.772Z,984.34
2016-01-31T00:03:13.962Z,984.41
2016-01-31T00:04:13.668Z,984.4
2016-01-31T00:05:13.656Z,984.39
2016-01-31T00:06:13.659Z,984.43
2016-01-31T00:07:13.661Z,984.43
2016-01-31T00:08:13.648Z,984.47
2016-01-31T00:09:13.667Z,984.54
2016-01-31T00:10:13.655Z,984.53
2016-01-31T00:11:13.642Z,984.53
2016-01-31T00:12:13.645Z,984.54
2016-01-31T00:13:13.647Z,984.52
2016-01-31T00:14:13.639Z,984.56
2016-01-31T00:15:13.628Z,984.55
2016-01-31T00:16:13.631Z,984.53
2016-01-31T00:17:13.618Z,984.58
2016-01-31T00:18:13.621Z,984.54
2016-01-31T00:19:13.624Z,984.52
2016-01-31T00:20:13.614Z,984.55
2016-01-31T00:21:13.617Z,984.6
2016-01-31T00:22:13.603Z,984.64
2016-01-31T00:23:13.606Z,984.69
2016-01-31T00:24:13.609Z,984.76
2016-01-31T00:25:13.596Z,984.79
2016-01-31T00:26:13.599Z,984.82
2016-01-31T00:27:13.587Z,984.96
2016-01-31T00:28:13.589Z,985.02
2016-01-31T00:29:13.590Z,985.08
2016-01-31T00:30:13.574Z,985.12
2016-01-31T00:31:13.579Z,985.24
2016-01-31T00:32:13.565Z,985.3
2016-01-31T00:33:13.568Z,985.35
2016-01-31T00:34:13.571Z,985.23
2016-01-31T00:35:13.559Z,985.43
2016-01-31T00:36:13.577Z,985.43
2016-01-31T00:37:13.549Z,985.47
2016-01-31T00:38:13.535Z,985.46
2016-01-31T00:39:13.554Z,985.55
2016-01-31T00:40:13.545Z,985.59
2016-01-31T00:41:13.532Z,985.67
2016-01-31T00:42:13.519Z,985.78
2016-01-31T00:43:13.538Z,985.76
2016-01-31T00:44:13.510Z,985.87
2016-01-31T00:45:13.513Z,985.96
2016-01-31T00:46:13.509Z,985.99
2016-01-31T00:47:13.512Z,986.03
2016-01-31T00:48:13.503Z,986.15
2016-01-31T00:49:13.490Z,986.27
2016-01-31T00:50:13.493Z,986.27
2016-01-31T00:51:13.484Z,986.33
2016-01-31T00:52:13.487Z,986.42
2016-01-31T00:53:13.490Z,986.43
2016-01-31T00:54:13.476Z,986.47
2016-01-31T00:55:13.480Z,986.47
2016-01-31T00:56:13.467Z,986.56
2016-01-31T00:57:13.470Z,986.66
2016-01-31T00:58:13.457Z,986.7
2016-01-31T00:59:13.449Z,986.77
2016-01-31T01:00:13.451Z,986.75
2016-01-31T01:01:13.454Z,986.7
2016-01-31T01:02:13.442Z,986.68
2016-01-31T01:03:13.444Z,986.61
2016-01-31T01:04:13.425Z,986.62
2016-01-31T01:05:13.428Z,986.68
2016-01-31T01:06:13.416Z,986.78
2016-01-31T01:07:13.434Z,986.73
2016-01-31T01:08:13.407Z,986.73
2016-01-31T01:09:13.409Z,986.76
2016-01-31T01:10:13.404Z,986.75
2016-01-31T01:11:13.406Z,986.73
2016-01-31T01:12:13.393Z,986.76
2016-01-31T01:13:13.380Z,986.8
2016-01-31T01:14:13.383Z,986.81
2016-01-31T01:15:13.370Z,986.9
2016-01-31T01:16:13.373Z,986.89
2016-01-31T01:17:13.359Z,986.87
2016-01-31T01:18:13.347Z,986.9
2016-01-31T01:19:13.351Z,986.93
2016-01-31T01:20:13.354Z,986.9
2016-01-31T01:21:13.340Z,986.95
2016-01-31T01:22:13.326Z,986.93
2016-01-31T01:23:13.330Z,986.96
2016-01-31T01:24:13.318Z,987
2016-01-31T01:25:13.321Z,987.06
2016-01-31T01:26:13.308Z,987.09
2016-01-31T01:27:13.311Z,987.03
2016-01-31T01:28:13.316Z,987.01
2016-01-31T01:29:13.301Z,987.02
2016-01-31T01:30:13.290Z,987.07
2016-01-31T01:31:13.292Z,987.07
2016-01-31T01:32:13.280Z,987.07
2016-01-31T01:33:13.282Z,987.17
2016-01-31T01:34:13.271Z,987.13
2016-01-31T01:35:13.274Z,987.14
2016-01-31T01:36:13.261Z,987.14
2016-01-31T01:37:13.264Z,987.16
2016-01-31T01:38:13.252Z,987.19
2016-01-31T01:39:13.255Z,987.17
2016-01-31T01:40:13.242Z,987.27
2016-01-31T01:41:13.245Z,987.24
2016-01-31T01:42:13.232Z,987.22
2016-01-31T01:43:13.235Z,987.25
2016-01-31T01:44:13.219Z,987.26
2016-01-31T01:45:13.207Z,987.3
2016-01-31T01:46:13.214Z,987.3
2016-01-31T01:47:13.201Z,987.36
2016-01-31T01:48:13.204Z,987.43
2016-01-31T01:49:13.191Z,987.45
2016-01-31T01:50:13.194Z,987.38
2016-01-31T01:51:13.181Z,987.41
2016-01-31T01:52:13.184Z,987.45
2016-01-31T01:53:13.171Z,987.46
2016-01-31T01:54:13.174Z,987.45
2016-01-31T01:55:13.160Z,987.51
2016-01-31T01:56:13.163Z,987.49
2016-01-31T01:57:13.151Z,987.48
2016-01-31T01:58:13.156Z,987.52
2016-01-31T01:59:13.143Z,987.52
2016-01-31T02:00:13.145Z,987.5
2016-01-31T02:01:13.133Z,987.57
2016-01-31T02:02:13.137Z,987.63
2016-01-31T02:03:13.124Z,987.58
2016-01-31T02:04:13.127Z,987.56
2016-01-31T02:05:13.114Z,987.57
2016-01-31T02:06:13.117Z,987.58
2016-01-31T02:07:13.105Z,987.55
2016-01-31T02:08:13.108Z,987.58
2016-01-31T02:09:13.095Z,987.52
2016-01-31T02:10:13.098Z,987.54
2016-01-31T02:11:13.084Z,987.58
2016-01-31T02:12:13.087Z,987.57
2016-01-31T02:13:13.090Z,987.62
2016-01-31T02:14:13.078Z,987.58
2016-01-31T02:15:13.064Z,987.62
2016-01-31T02:16:13.067Z,987.62
2016-01-31T02:17:13.058Z,987.63
2016-01-31T02:18:13.049Z,987.65
2016-01-31T02:19:13.052Z,987.63
2016-01-31T02:20:13.054Z,987.61
2016-01-31T02:21:13.041Z,987.64
2016-01-31T02:22:13.029Z,987.61
2016-01-31T02:23:13.031Z,987.61
2016-01-31T02:24:13.019Z,987.62
2016-01-31T02:25:13.022Z,987.57
2016-01-31T02:26:13.012Z,987.55
2016-01-31T02:27:13.016Z,987.51
2016-01-31T02:28:13.003Z,987.44
2016-01-31T02:29:13.005Z,987.46
2016-01-31T02:30:12.993Z,987.36
2016-01-31T02:31:12.980Z,987.35
2016-01-31T02:32:12.983Z,987.37
2016-01-31T02:33:12.970Z,987.3
2016-01-31T02:34:12.974Z,987.27
2016-01-31T02:35:12.976Z,987.3
2016-01-31T02:36:12.963Z,987.26
2016-01-31T02:37:12.949Z,987.25
2016-01-31T02:38:12.953Z,987.17
2016-01-31T02:39:12.940Z,987.13
2016-01-31T02:40:12.942Z,987.12
2016-01-31T02:41:12.929Z,987.1
2016-01-31T02:42:12.932Z,987.09
2016-01-31T02:43:12.919Z,987.1
2016-01-31T02:44:12.922Z,987.06
2016-01-31T02:45:12.910Z,987.06
2016-01-31T02:46:12.914Z,987.05
2016-01-31T02:47:12.901Z,987.15
2016-01-31T02:48:12.903Z,987.2
2016-01-31T02:49:12.893Z,987.17
2016-01-31T02:50:12.896Z,987.28
2016-01-31T02:51:12.884Z,987.22
2016-01-31T02:52:12.870Z,987.29
2016-01-31T02:53:12.873Z,987.32
2016-01-31T02:54:12.861Z,987.29
2016-01-31T02:55:12.864Z,987.34
2016-01-31T02:56:12.867Z,987.3
2016-01-31T02:57:12.836Z,987.36
2016-01-31T02:58:12.838Z,987.3
2016-01-31T02:59:12.827Z,987.25
2016-01-31T03:00:12.830Z,987.22
2016-01-31T03:01:12.820Z,987.24
2016-01-31T03:02:12.822Z,987.27
2016-01-31T03:03:12.809Z,987.2
2016-01-31T03:04:12.812Z,987.24
2016-01-31T03:05:12.799Z,987.23
2016-01-31T03:06:12.787Z,987.22
2016-01-31T03:07:12.790Z,987.19
2016-01-31T03:08:12.792Z,987.19
2016-01-31T03:09:12.779Z,987.22
2016-01-31T03:10:12.770Z,987.22
2016-01-31T03:11:12.772Z,987.26
2016-01-31T03:12:12.759Z,987.28
2016-01-31T03:13:12.762Z,987.35
2016-01-31T03:14:12.755Z,987.31
2016-01-31T03:15:12.742Z,987.3
2016-01-31T03:16:12.745Z,987.29
2016-01-31T03:17:12.732Z,987.26
2016-01-31T03:18:12.751Z,987.35
2016-01-31T03:19:12.721Z,987.29
2016-01-31T03:20:12.714Z,987.33
2016-01-31T03:21:12.703Z,987.3
2016-01-31T03:22:12.706Z,987.26
2016-01-31T03:23:12.692Z,987.27
2016-01-31T03:24:12.695Z,987.3
2016-01-31T03:25:12.683Z,987.34
2016-01-31T03:26:12.670Z,987.32
2016-01-31T03:27:12.672Z,987.28
2016-01-31T03:28:12.675Z,987.3
2016-01-31T03:29:12.662Z,987.3
2016-01-31T03:30:12.665Z,987.23
2016-01-31T03:31:12.654Z,987.25
2016-01-31T03:32:12.640Z,987.3
2016-01-31T03:33:12.643Z,987.29
2016-01-31T03:34:12.632Z,987.29
2016-01-31T03:35:12.635Z,987.3
2016-01-31T03:36:12.621Z,987.29
2016-01-31T03:37:12.607Z,987.31
2016-01-31T03:38:12.612Z,987.2
2016-01-31T03:39:12.615Z,987.21
2016-01-31T03:40:12.604Z,987.22
2016-01-31T03:41:12.590Z,987.23
2016-01-31T03:42:12.594Z,987.21
2016-01-31T03:43:12.580Z,987.2
2016-01-31T03:44:12.568Z,987.21
2016-01-31T03:45:12.573Z,987.19
2016-01-31T03:46:12.560Z,987.2
2016-01-31T03:47:12.563Z,987.23
2016-01-31T03:48:12.550Z,987.28
2016-01-31T03:49:12.539Z,987.34
2016-01-31T03:50:12.547Z,987.27
2016-01-31T03:51:12.534Z,987.36
2016-01-31T03:52:12.538Z,987.35
2016-01-31T03:53:12.524Z,987.31
2016-01-31T03:54:12.512Z,987.38
2016-01-31T03:55:12.515Z,987.33
2016-01-31T03:56:12.517Z,987.39
2016-01-31T03:57:12.504Z,987.41
2016-01-31T03:58:12.491Z,987.47
2016-01-31T03:59:12.495Z,987.49
2016-01-31T04:00:12.482Z,987.49
2016-01-31T04:01:12.484Z,987.49
2016-01-31T04:02:12.472Z,987.52
2016-01-31T04:03:12.459Z,987.53
2016-01-31T04:04:12.463Z,987.57
2016-01-31T04:05:12.450Z,987.54
2016-01-31T04:06:12.453Z,987.59
2016-01-31T04:07:12.439Z,987.59
2016-01-31T04:08:12.441Z,987.59
2016-01-31T04:09:12.430Z,987.63
2016-01-31T04:10:12.417Z,987.68
2016-01-31T04:11:12.419Z,987.64
2016-01-31T04:12:12.407Z,987.71
2016-01-31T04:13:12.397Z,987.66
2016-01-31T04:14:12.399Z,987.64
2016-01-31T04:15:12.387Z,987.64
2016-01-31T04:16:12.389Z,987.69
2016-01-31T04:17:12.376Z,987.71
2016-01-31T04:18:12.382Z,987.71
2016-01-31T04:19:12.370Z,987.73
2016-01-31T04:20:12.363Z,987.72
2016-01-31T04:21:12.366Z,987.69
2016-01-31T04:22:12.353Z,987.71
2016-01-31T04:23:12.340Z,987.72
2016-01-31T04:24:12.346Z,987.69
2016-01-31T04:25:12.333Z,987.7
2016-01-31T04:26:12.336Z,987.75
2016-01-31T04:27:12.323Z,987.79
2016-01-31T04:28:12.312Z,987.85
2016-01-31T04:29:12.315Z,987.85
2016-01-31T04:30:12.301Z,987.84
2016-01-31T04:31:12.304Z,987.86
2016-01-31T04:32:12.291Z,987.91
2016-01-31T04:33:12.296Z,987.95
2016-01-31T04:34:12.284Z,987.92
2016-01-31T04:35:12.270Z,987.89
2016-01-31T04:36:12.273Z,987.94
2016-01-31T04:37:12.277Z,987.93
2016-01-31T04:38:12.264Z,987.93
2016-01-31T04:39:12.251Z,988.01
2016-01-31T04:40:12.253Z,987.94
2016-01-31T04:41:12.241Z,988.01
2016-01-31T04:42:12.229Z,987.98
2016-01-31T04:43:12.231Z,988.02
2016-01-31T04:44:12.223Z,987.99
2016-01-31T04:45:12.225Z,987.97
2016-01-31T04:46:12.212Z,987.97
2016-01-31T04:47:12.199Z,988.03
2016-01-31T04:48:12.203Z,987.93
2016-01-31T04:49:12.205Z,987.95
2016-01-31T04:50:12.193Z,987.93
2016-01-31T04:51:12.195Z,987.92
2016-01-31T04:52:12.183Z,987.9
2016-01-31T04:53:12.171Z,987.88
2016-01-31T04:54:12.173Z,987.98
2016-01-31T04:55:12.157Z,987.91
2016-01-31T04:56:12.160Z,987.98
2016-01-31T04:57:12.148Z,987.95
2016-01-31T04:58:12.136Z,988.01
2016-01-31T04:59:12.139Z,987.98
2016-01-31T05:00:12.125Z,987.99
2016-01-31T05:01:12.129Z,987.95
2016-01-31T05:02:12.117Z,987.96
2016-01-31T05:03:12.104Z,988.01
2016-01-31T05:04:12.107Z,988
2016-01-31T05:05:12.110Z,987.97
2016-01-31T05:06:12.096Z,987.98
2016-01-31T05:07:12.084Z,987.98
2016-01-31T05:08:12.087Z,987.99
2016-01-31T05:09:12.090Z,987.97
2016-01-31T05:10:12.076Z,988.02
2016-01-31T05:11:12.063Z,988.05
2016-01-31T05:12:12.067Z,988.08
2016-01-31T05:13:12.054Z,988.14
2016-01-31T05:14:12.041Z,988.14
2016-01-31T05:15:12.043Z,988.09
2016-01-31T05:16:12.031Z,988.16
2016-01-31T05:17:12.034Z,988.17
2016-01-31T05:18:12.020Z,988.13
2016-01-31T05:19:12.023Z,988.17
2016-01-31T05:20:12.010Z,988.17
2016-01-31T05:21:12.015Z,988.17
2016-01-31T05:22:12.002Z,988.21
2016-01-31T05:23:12.005Z,988.16
2016-01-31T05:24:11.992Z,988.16
2016-01-31T05:25:11.979Z,988.2
2016-01-31T05:26:11.982Z,988.22
2016-01-31T05:27:11.970Z,988.25
2016-01-31T05:28:11.973Z,988.26
2016-01-31T05:29:11.960Z,988.26
2016-01-31T05:30:11.962Z,988.27
2016-01-31T05:31:11.949Z,988.22
2016-01-31T05:32:11.939Z,988.22
2016-01-31T05:33:11.942Z,988.12
2016-01-31T05:34:11.929Z,988.19
2016-01-31T05:35:11.931Z,988.17
2016-01-31T05:36:11.919Z,988.17
2016-01-31T05:37:11.923Z,988.13
2016-01-31T05:38:11.910Z,988.26
2016-01-31T05:39:11.896Z,988.27
2016-01-31T05:40:11.899Z,988.22
2016-01-31T05:41:11.889Z,988.21
2016-01-31T05:42:11.891Z,988.2
2016-01-31T05:43:11.878Z,988.24
2016-01-31T05:44:11.882Z,988.21
2016-01-31T05:45:11.868Z,988.15
2016-01-31T05:46:11.856Z,988.22
2016-01-31T05:47:11.861Z,988.22
2016-01-31T05:48:11.848Z,988.21
2016-01-31T05:49:11.851Z,988.26
2016-01-31T05:50:11.837Z,988.27
2016-01-31T05:51:11.826Z,988.3
2016-01-31T05:52:11.829Z,988.19
2016-01-31T05:53:11.815Z,988.3
2016-01-31T05:54:11.818Z,988.27
2016-01-31T05:55:11.805Z,988.29
2016-01-31T05:56:11.809Z,988.33
2016-01-31T05:57:11.796Z,988.32
2016-01-31T05:58:11.799Z,988.33
2016-01-31T05:59:11.785Z,988.35
2016-01-31T06:00:11.777Z,988.44
2016-01-31T06:01:11.779Z,988.37
2016-01-31T06:02:11.766Z,988.41
2016-01-31T06:03:11.768Z,988.48
2016-01-31T06:04:11.755Z,988.45
2016-01-31T06:05:11.760Z,988.53
2016-01-31T06:06:11.748Z,988.46
2016-01-31T06:07:11.736Z,988.47
2016-01-31T06:08:11.739Z,988.55
2016-01-31T06:09:11.725Z,988.45
2016-01-31T06:10:11.728Z,988.47
2016-01-31T06:11:11.716Z,988.55
2016-01-31T06:12:11.719Z,988.55
2016-01-31T06:13:11.691Z,988.55
2016-01-31T06:14:11.662Z,988.55
2016-01-31T06:15:11.649Z,988.62
2016-01-31T06:16:11.622Z,988.54
2016-01-31T06:17:11.594Z,988.5
2016-01-31T06:18:11.608Z,988.53
2016-01-31T06:19:11.573Z,988.53
2016-01-31T06:20:11.572Z,988.55
2016-01-31T06:21:11.569Z,988.55
2016-01-31T06:22:11.552Z,988.58
2016-01-31T06:23:11.552Z,988.59
2016-01-31T06:24:11.524Z,988.62
2016-01-31T06:25:11.525Z,988.61
2016-01-31T06:26:11.526Z,988.59
2016-01-31T06:27:11.513Z,988.63
2016-01-31T06:28:11.498Z,988.65
2016-01-31T06:29:11.500Z,988.69
2016-01-31T06:30:11.488Z,988.68
2016-01-31T06:31:11.474Z,988.76
2016-01-31T06:32:11.477Z,988.82
2016-01-31T06:33:11.463Z,988.82
2016-01-31T06:34:11.465Z,988.86
2016-01-31T06:35:11.454Z,988.86
2016-01-31T06:36:11.457Z,988.87
2016-01-31T06:37:11.443Z,988.89
2016-01-31T06:38:11.430Z,988.86
2016-01-31T06:39:11.432Z,988.86
2016-01-31T06:40:11.436Z,988.97
2016-01-31T06:41:11.424Z,988.92
2016-01-31T06:42:11.410Z,988.91
2016-01-31T06:43:11.413Z,988.91
2016-01-31T06:44:11.404Z,988.9
2016-01-31T06:45:11.389Z,988.9
2016-01-31T06:46:11.391Z,988.93
2016-01-31T06:47:11.379Z,988.95
2016-01-31T06:48:11.382Z,988.89
2016-01-31T06:49:11.369Z,988.91
2016-01-31T06:50:11.372Z,988.97
2016-01-31T06:51:11.359Z,988.96
2016-01-31T06:52:11.361Z,989
2016-01-31T06:53:11.347Z,988.89
2016-01-31T06:54:11.335Z,988.9
2016-01-31T06:55:11.353Z,988.82
2016-01-31T06:56:11.340Z,988.84
2016-01-31T06:57:11.327Z,988.82
2016-01-31T06:58:11.314Z,988.88
2016-01-31T06:59:11.320Z,988.92
2016-01-31T07:00:11.308Z,988.87
2016-01-31T07:01:11.295Z,988.89
2016-01-31T07:02:11.298Z,988.86
2016-01-31T07:03:11.300Z,988.87
2016-01-31T07:04:11.288Z,988.89
2016-01-31T07:05:11.276Z,988.97
2016-01-31T07:06:11.278Z,988.99
2016-01-31T07:07:11.265Z,988.96
2016-01-31T07:08:11.268Z,989.03
2016-01-31T07:09:11.256Z,989.01
2016-01-31T07:10:11.244Z,989.04
2016-01-31T07:11:11.247Z,989.05
2016-01-31T07:12:11.250Z,989.06
2016-01-31T07:13:11.236Z,989.05
2016-01-31T07:14:11.239Z,989.05
2016-01-31T07:15:11.222Z,989.01
2016-01-31T07:16:11.224Z,989.1
2016-01-31T07:17:11.212Z,989.12
2016-01-31T07:18:11.215Z,989.12
2016-01-31T07:19:11.202Z,989.05
2016-01-31T07:20:11.189Z,989.06
2016-01-31T07:21:11.192Z,989
2016-01-31T07:22:11.194Z,989.09
2016-01-31T07:23:11.182Z,989.09
2016-01-31T07:24:11.170Z,989.11
2016-01-31T07:25:11.172Z,989.05
2016-01-31T07:26:11.159Z,989.11
2016-01-31T07:27:11.162Z,989.23
2016-01-31T07:28:11.149Z,989.17
2016-01-31T07:29:11.152Z,989.27
2016-01-31T07:30:11.143Z,989.28
2016-01-31T07:31:11.130Z,989.25
2016-01-31T07:32:11.132Z,989.26
2016-01-31T07:33:11.119Z,989.27
2016-01-31T07:34:11.122Z,989.29
2016-01-31T07:35:11.111Z,989.2
2016-01-31T07:36:11.114Z,989.17
2016-01-31T07:37:11.101Z,989.16
2016-01-31T07:38:11.103Z,989.19
2016-01-31T07:39:11.092Z,989.25
2016-01-31T07:40:11.094Z,989.3
2016-01-31T07:41:11.081Z,989.3
2016-01-31T07:42:11.085Z,989.35
2016-01-31T07:43:11.076Z,989.37
2016-01-31T07:44:11.062Z,989.42
2016-01-31T07:45:11.066Z,989.5
2016-01-31T07:46:11.053Z,989.42
2016-01-31T07:47:11.055Z,989.44
2016-01-31T07:48:11.044Z,989.43
2016-01-31T07:49:11.032Z,989.4
2016-01-31T07:50:11.035Z,989.45
2016-01-31T07:51:11.038Z,989.44
2016-01-31T07:52:11.025Z,989.46
2016-01-31T07:53:11.027Z,989.42
2016-01-31T07:54:11.014Z,989.45
2016-01-31T07:55:11.017Z,989.41
2016-01-31T07:56:11.019Z,989.4
2016-01-31T07:57:11.007Z,989.45
2016-01-31T07:58:10.991Z,989.45
2016-01-31T07:59:10.995Z,989.44
2016-01-31T08:00:10.982Z,989.38
2016-01-31T08:01:10.984Z,989.39
2016-01-31T08:02:10.972Z,989.36
2016-01-31T08:03:10.976Z,989.33
2016-01-31T08:04:10.962Z,989.38
2016-01-31T08:05:10.965Z,989.37
2016-01-31T08:06:10.953Z,989.38
2016-01-31T08:07:10.955Z,989.37
2016-01-31T08:08:10.943Z,989.45
2016-01-31T08:09:10.946Z,989.43
2016-01-31T08:10:10.933Z,989.42
2016-01-31T08:11:10.935Z,989.43
2016-01-31T08:12:10.938Z,989.43
2016-01-31T08:13:10.926Z,989.44
2016-01-31T08:14:10.912Z,989.46
2016-01-31T08:15:10.915Z,989.49
2016-01-31T08:16:10.918Z,989.56
2016-01-31T08:17:10.904Z,989.55
2016-01-31T08:18:10.905Z,989.59
2016-01-31T08:19:10.894Z,989.66
2016-01-31T08:20:10.896Z,989.61
2016-01-31T08:21:10.899Z,989.65
2016-01-31T08:22:10.885Z,989.61
2016-01-31T08:23:10.889Z,989.5
2016-01-31T08:24:10.876Z,989.49
2016-01-31T08:25:10.879Z,989.54
2016-01-31T08:26:10.882Z,989.51
2016-01-31T08:27:10.870Z,989.43
2016-01-31T08:28:10.856Z,989.55
2016-01-31T08:29:10.859Z,989.52
2016-01-31T08:30:10.847Z,989.56
2016-01-31T08:31:10.849Z,989.56
2016-01-31T08:32:10.837Z,989.48
2016-01-31T08:33:10.840Z,989.45
2016-01-31T08:34:10.827Z,989.46
2016-01-31T08:35:10.830Z,989.52
2016-01-31T08:36:10.833Z,989.52
2016-01-31T08:37:10.821Z,989.53
2016-01-31T08:38:10.824Z,989.53
2016-01-31T08:39:10.811Z,989.58
2016-01-31T08:40:10.813Z,989.47
2016-01-31T08:41:10.800Z,989.5
2016-01-31T08:42:10.803Z,989.51
2016-01-31T08:43:10.794Z,989.54
2016-01-31T08:44:10.797Z,989.49
2016-01-31T08:45:10.783Z,989.52
2016-01-31T08:46:10.786Z,989.56
2016-01-31T08:47:10.776Z,989.5
2016-01-31T08:48:10.786Z,989.45
2016-01-31T08:49:10.775Z,989.52
2016-01-31T08:50:10.778Z,989.49
2016-01-31T08:51:10.764Z,989.5
2016-01-31T08:52:10.767Z,989.46
2016-01-31T08:53:10.771Z,989.41
2016-01-31T08:54:10.758Z,989.38
2016-01-31T08:55:10.745Z,989.41
2016-01-31T08:56:10.748Z,989.48
2016-01-31T08:57:10.750Z,989.47
2016-01-31T08:58:10.737Z,989.58
2016-01-31T08:59:10.740Z,989.68
2016-01-31T09:00:10.726Z,989.65
2016-01-31T09:01:10.730Z,989.69
2016-01-31T09:02:10.734Z,989.64
2016-01-31T09:03:10.722Z,989.6
2016-01-31T09:04:10.725Z,989.64
2016-01-31T09:05:10.711Z,989.57
2016-01-31T09:06:10.715Z,989.55
2016-01-31T09:07:10.703Z,989.57
2016-01-31T09:08:10.706Z,989.57
2016-01-31T09:09:10.708Z,989.62
2016-01-31T09:10:10.696Z,989.64
2016-01-31T09:11:10.700Z,989.64
2016-01-31T09:12:10.686Z,989.6
2016-01-31T09:13:10.689Z,989.61
2016-01-31T09:14:10.677Z,989.61
2016-01-31T09:15:10.680Z,989.65
2016-01-31T09:16:10.900Z,989.68
2016-01-31T09:17:10.671Z,989.65
2016-01-31T09:18:10.674Z,989.67
2016-01-31T09:19:10.677Z,989.61
2016-01-31T09:20:10.669Z,989.58
2016-01-31T09:21:10.656Z,989.56
2016-01-31T09:22:10.659Z,989.51
2016-01-31T09:23:10.647Z,989.51
2016-01-31T09:24:10.649Z,989.54
2016-01-31T09:25:10.652Z,989.47
2016-01-31T09:26:10.639Z,989.5
2016-01-31T09:27:10.642Z,989.49
2016-01-31T09:28:10.630Z,989.49
2016-01-31T09:29:10.632Z,989.48
2016-01-31T09:30:10.635Z,989.49
2016-01-31T09:31:10.623Z,989.52
2016-01-31T09:32:10.626Z,989.54
2016-01-31T09:33:10.644Z,989.54
2016-01-31T09:34:10.615Z,989.58
2016-01-31T09:35:10.618Z,989.57
2016-01-31T09:36:10.606Z,989.55
2016-01-31T09:37:10.610Z,989.5
2016-01-31T09:38:10.613Z,989.47
2016-01-31T09:39:10.600Z,989.54
2016-01-31T09:40:10.603Z,989.51
2016-01-31T09:41:10.589Z,989.59
2016-01-31T09:42:10.592Z,989.5
2016-01-31T09:43:10.595Z,989.45
2016-01-31T09:44:10.587Z,989.38
2016-01-31T09:45:10.590Z,989.41
2016-01-31T09:46:10.576Z,989.35
2016-01-31T09:47:10.579Z,989.32
2016-01-31T09:48:10.578Z,989.35
2016-01-31T09:49:10.580Z,989.38
2016-01-31T09:50:10.567Z,989.28
2016-01-31T09:51:10.571Z,989.23
2016-01-31T09:52:10.948Z,989.27
2016-01-31T09:53:10.561Z,989.32
2016-01-31T09:54:10.563Z,989.27
2016-01-31T09:55:10.568Z,989.31
2016-01-31T09:56:10.554Z,989.33
2016-01-31T09:57:10.573Z,989.41
2016-01-31T09:58:10.546Z,989.3
2016-01-31T09:59:10.549Z,989.3
2016-01-31T10:00:10.566Z,989.24
2016-01-31T10:01:10.537Z,989.24
2016-01-31T10:02:10.541Z,989.32
2016-01-31T10:03:10.527Z,989.38
2016-01-31T10:04:10.530Z,989.31
2016-01-31T10:05:10.518Z,989.28
2016-01-31T10:06:10.522Z,989.33
2016-01-31T10:07:10.525Z,989.38
2016-01-31T10:08:10.527Z,989.32
2016-01-31T10:09:10.514Z,989.37
2016-01-31T10:10:10.504Z,989.41
2016-01-31T10:11:10.507Z,989.36
2016-01-31T10:12:10.510Z,989.42
2016-01-31T10:13:10.513Z,989.39
2016-01-31T10:14:10.501Z,989.36
2016-01-31T10:15:10.504Z,989.35
2016-01-31T10:16:10.553Z,989.26
2016-01-31T10:17:10.509Z,989.34
2016-01-31T10:18:10.498Z,989.25
2016-01-31T10:19:10.482Z,989.28
2016-01-31T10:20:10.485Z,989.25
2016-01-31T10:21:10.476Z,989.22
2016-01-31T10:22:10.479Z,989.22
2016-01-31T10:23:10.481Z,989.33
2016-01-31T10:24:10.484Z,989.3
2016-01-31T10:25:10.924Z,989.25
2016-01-31T10:26:10.474Z,989.27
2016-01-31T10:27:10.461Z,989.16
2016-01-31T10:28:10.464Z,989.16
2016-01-31T10:29:10.467Z,989.08
2016-01-31T10:30:10.454Z,989.07
2016-01-31T10:31:10.488Z,989.08
2016-01-31T10:32:10.460Z,989.07
2016-01-31T10:33:10.446Z,989.08
2016-01-31T10:34:10.449Z,989.16
2016-01-31T10:35:10.437Z,989.11
2016-01-31T10:36:10.440Z,989.08
2016-01-31T10:37:10.442Z,989.09
2016-01-31T10:38:10.430Z,989.14
2016-01-31T10:39:10.541Z,989.11
2016-01-31T10:40:10.435Z,989.06
2016-01-31T10:41:10.422Z,989.09
2016-01-31T10:42:10.425Z,989.08
2016-01-31T10:43:10.413Z,989.05
2016-01-31T10:44:10.415Z,989.07
2016-01-31T10:45:10.418Z,989.06
2016-01-31T10:46:10.409Z,989.07
2016-01-31T10:47:10.411Z,989.12
2016-01-31T10:48:10.398Z,989
2016-01-31T10:49:10.400Z,989.12
2016-01-31T10:50:10.405Z,989.01
2016-01-31T10:51:10.409Z,989.07
2016-01-31T10:52:10.412Z,989.07
2016-01-31T10:53:10.383Z,989.12
2016-01-31T10:54:10.402Z,989.09
2016-01-31T10:55:10.392Z,989.12
2016-01-31T10:56:10.394Z,989.09
2016-01-31T10:57:10.381Z,989.15
2016-01-31T10:58:10.383Z,989.16
2016-01-31T10:59:10.388Z,989.17
2016-01-31T11:00:10.376Z,989.26
2016-01-31T11:01:10.366Z,989.18
2016-01-31T11:02:10.368Z,989.13
2016-01-31T11:03:10.371Z,989.2
2016-01-31T11:04:10.374Z,989.26
2016-01-31T11:05:10.361Z,989.2
2016-01-31T11:06:10.365Z,989.17
2016-01-31T11:07:10.353Z,989.19
2016-01-31T11:08:10.370Z,989.15
2016-01-31T11:09:10.358Z,989.15
2016-01-31T11:10:10.349Z,989.13
2016-01-31T11:11:10.382Z,989.15
2016-01-31T11:12:10.354Z,989.14
2016-01-31T11:13:10.340Z,989.11
2016-01-31T11:14:10.347Z,989.07
2016-01-31T11:15:10.351Z,989.12
2016-01-31T11:16:10.354Z,989.22
2016-01-31T11:17:10.341Z,989.08
2016-01-31T11:18:10.344Z,989.11
2016-01-31T11:19:10.335Z,989.06
2016-01-31T11:20:10.337Z,989.29
2016-01-31T11:21:10.340Z,989.11
2016-01-31T11:22:10.327Z,989.18
2016-01-31T11:23:10.329Z,989.1
2016-01-31T11:24:10.332Z,989.09
2016-01-31T11:25:10.317Z,989.09
2016-01-31T11:26:10.320Z,989.03
2016-01-31T11:27:10.322Z,989.07
2016-01-31T11:28:10.325Z,989.11
2016-01-31T11:29:10.312Z,989.11
2016-01-31T11:30:10.315Z,989.18
2016-01-31T11:31:10.318Z,989
2016-01-31T11:32:10.321Z,989.04
2016-01-31T11:33:10.307Z,989.08
2016-01-31T11:34:10.311Z,989.09
2016-01-31T11:35:10.314Z,989.05
2016-01-31T11:36:10.302Z,989.08
2016-01-31T11:37:10.304Z,989.05
2016-01-31T11:38:10.307Z,989.05
2016-01-31T11:39:10.310Z,989.04
2016-01-31T11:40:10.312Z,989.09
2016-01-31T11:41:10.299Z,989.16
2016-01-31T11:42:10.302Z,989.14
2016-01-31T11:43:10.290Z,989.2
2016-01-31T11:44:10.386Z,989.2
2016-01-31T11:45:10.467Z,989.17
2016-01-31T11:46:10.298Z,989.19
2016-01-31T11:47:10.755Z,989.23
2016-01-31T11:48:10.304Z,989.16
2016-01-31T11:49:10.291Z,989.14
2016-01-31T11:50:10.290Z,989.09
2016-01-31T11:51:10.651Z,989.19
2016-01-31T11:52:10.283Z,989.2
2016-01-31T11:53:10.271Z,989.22
2016-01-31T11:54:10.431Z,989.17
2016-01-31T11:55:10.293Z,989.2
2016-01-31T11:56:10.281Z,989.19
2016-01-31T11:57:10.268Z,989.22
2016-01-31T11:58:10.301Z,989.16
2016-01-31T11:59:10.278Z,989.2
2016-01-31T12:00:10.578Z,989.13
2016-01-31T12:01:10.284Z,989.12
2016-01-31T12:02:10.270Z,989.08
2016-01-31T12:03:10.493Z,989.15
2016-01-31T12:04:10.262Z,989.12
2016-01-31T12:05:10.264Z,989.08
2016-01-31T12:06:10.330Z,989.11
2016-01-31T12:07:10.255Z,989.04
2016-01-31T12:08:10.258Z,989.02
2016-01-31T12:09:10.260Z,989.02
2016-01-31T12:10:10.252Z,989
2016-01-31T12:11:10.255Z,988.99
2016-01-31T12:12:10.242Z,989
2016-01-31T12:13:10.245Z,989.03
2016-01-31T12:14:10.249Z,989.05
2016-01-31T12:15:10.252Z,989.03
2016-01-31T12:16:10.240Z,988.98
2016-01-31T12:17:10.242Z,988.98
2016-01-31T12:18:10.233Z,988.9
2016-01-31T12:19:10.237Z,988.89
2016-01-31T12:20:10.255Z,988.89
2016-01-31T12:21:10.242Z,988.94
2016-01-31T12:22:10.245Z,988.89
2016-01-31T12:23:10.230Z,988.86
2016-01-31T12:24:10.232Z,988.84
2016-01-31T12:25:10.220Z,988.79
2016-01-31T12:26:10.222Z,988.76
2016-01-31T12:27:10.228Z,988.75
2016-01-31T12:28:10.231Z,988.79
2016-01-31T12:29:10.220Z,988.73
2016-01-31T12:30:10.223Z,988.8
2016-01-31T12:31:10.225Z,988.76